Time;durP1;ratioP1;P1;durP2;ratioP2;P2;SDS_P1;SDS_P2;PMS_P1;PMS_P2;Temp;Humidity;BMP_temperature;BMP_pressure;BME280_temperature;BME280_humidity;BME280_pressure;Samples;Min_cycle;Max_cycle;Signal;HPM_P1;HPM_P2
2023/10/31 00:02:15;;;;;;;9.17;6.07;;;;;;;14.37;80.06;95049.97;5037401;28;20443;-73
2023/10/31 00:04:41;;;;;;;7.70;6.63;;;;;;;14.37;80.42;95049.97;5073175;28;20882;-73
2023/10/31 00:07:10;;;;;;;8.40;6.23;;;;;;;14.26;79.95;95051.03;5073692;28;20458;-73
2023/10/31 00:09:39;;;;;;;6.77;6.07;;;;;;;14.36;79.50;95060.69;5073829;28;20446;-73
2023/10/31 00:12:06;;;;;;;11.37;6.40;;;;;;;14.27;78.81;95055.34;5039033;28;20444;-72
2023/10/31 00:14:33;;;;;;;10.90;6.23;;;;;;;14.33;80.76;95058.34;5073379;28;20444;-73
2023/10/31 00:17:00;;;;;;;7.63;5.60;;;;;;;14.26;78.72;95048.41;5073661;28;20439;-73
2023/10/31 00:19:27;;;;;;;8.50;7.17;;;;;;;14.19;79.00;95047.34;5072949;28;20445;-74
2023/10/31 00:21:53;;;;;;;8.77;6.63;;;;;;;14.22;80.18;95044.41;5073037;28;20451;-73
2023/10/31 00:24:22;;;;;;;11.50;6.60;;;;;;;14.17;79.33;95044.03;5073569;28;20458;-73
2023/10/31 00:26:48;;;;;;;8.60;6.57;;;;;;;14.10;80.83;95026.25;5073141;28;20841;-73
2023/10/31 00:29:15;;;;;;;8.10;5.67;;;;;;;14.17;79.07;95037.91;5074072;28;20938;-73
2023/10/31 00:31:42;;;;;;;11.13;6.17;;;;;;;14.11;78.72;95036.66;5074094;28;20485;-75
2023/10/31 00:34:10;;;;;;;7.13;6.00;;;;;;;14.13;79.61;95044.44;5074322;28;20856;-74
2023/10/31 00:36:36;;;;;;;7.03;5.50;;;;;;;14.10;79.02;95037.66;5073406;28;20448;-74
2023/10/31 00:39:03;;;;;;;8.53;6.30;;;;;;;14.03;78.68;95030.47;5072071;28;20847;-74
2023/10/31 00:41:32;;;;;;;11.00;6.80;;;;;;;14.10;79.39;95035.00;5073842;28;20940;-73
2023/10/31 00:43:59;;;;;;;9.60;6.33;;;;;;;14.13;78.93;95031.25;5073376;28;20451;-73
2023/10/31 00:46:26;;;;;;;8.83;6.00;;;;;;;14.11;80.87;95020.84;5074591;28;20495;-74
2023/10/31 00:48:53;;;;;;;7.03;5.63;;;;;;;14.06;80.01;95024.91;5074165;28;20444;-73
2023/10/31 00:51:20;;;;;;;8.60;6.50;;;;;;;14.06;79.52;95030.19;5074051;28;20452;-74
2023/10/31 00:53:47;;;;;;;7.33;5.80;;;;;;;13.88;79.82;95019.59;5074434;28;20464;-74
2023/10/31 00:56:13;;;;;;;11.13;5.80;;;;;;;13.87;79.21;95023.19;5022018;28;20440;-73
2023/10/31 00:58:42;;;;;;;11.30;6.90;;;;;;;13.95;80.63;95020.66;5074389;28;20447;-74
2023/10/31 01:01:08;;;;;;;5.57;5.03;;;;;;;13.99;79.43;95029.13;5073729;28;20450;-74
2023/10/31 01:03:35;;;;;;;9.50;6.40;;;;;;;13.88;79.65;95020.44;5076169;28;20449;-74
2023/10/31 01:06:02;;;;;;;6.80;5.60;;;;;;;13.91;79.46;95025.41;5075994;28;21042;-74
2023/10/31 01:08:29;;;;;;;12.53;6.40;;;;;;;13.83;79.19;95024.47;5075804;28;20472;-74
2023/10/31 01:10:56;;;;;;;6.90;6.20;;;;;;;13.76;80.67;95011.03;5024439;28;20443;-73
2023/10/31 01:13:23;;;;;;;11.70;6.30;;;;;;;13.73;81.21;95007.88;5075881;28;20780;-74
2023/10/31 01:15:51;;;;;;;9.03;5.50;;;;;;;13.67;80.43;95013.72;5075777;28;20447;-74
2023/10/31 01:18:18;;;;;;;8.67;6.47;;;;;;;13.66;81.37;95012.91;5075655;28;20447;-74
2023/10/31 01:20:45;;;;;;;19.27;6.47;;;;;;;13.66;81.31;95012.91;5076370;28;20439;-74
2023/10/31 01:23:12;;;;;;;8.60;5.20;;;;;;;13.62;80.43;95007.09;5076932;28;20444;-73
2023/10/31 01:25:38;;;;;;;6.50;5.70;;;;;;;13.69;80.88;95001.22;5076674;28;20526;-73
2023/10/31 01:28:05;;;;;;;7.53;6.10;;;;;;;13.74;80.80;95009.53;5040755;28;20428;-73
2023/10/31 01:30:33;;;;;;;6.97;5.63;;;;;;;13.74;80.27;95009.53;5076404;28;20444;-73
2023/10/31 01:33:01;;;;;;;7.63;5.93;;;;;;;13.59;80.24;95007.38;5076109;28;20457;-73
2023/10/31 01:35:28;;;;;;;7.60;6.00;;;;;;;13.47;81.33;95008.53;5075728;28;20450;-73
2023/10/31 01:37:55;;;;;;;5.30;4.80;;;;;;;13.49;80.58;95003.94;5040125;28;20853;-74
2023/10/31 01:40:21;;;;;;;6.17;5.57;;;;;;;13.54;80.88;95004.34;5024111;28;20450;-75
2023/10/31 01:42:49;;;;;;;6.87;5.13;;;;;;;13.49;79.75;94990.75;5075606;28;20449;-74
2023/10/31 01:45:15;;;;;;;8.47;5.97;;;;;;;13.45;80.64;95002.56;5041218;28;20480;-74
2023/10/31 01:47:45;;;;;;;8.63;6.07;;;;;;;13.44;80.18;95006.19;5075655;28;20454;-74
2023/10/31 01:50:13;;;;;;;6.10;5.50;;;;;;;13.35;80.49;94999.16;5076248;28;20446;-72
2023/10/31 01:52:40;;;;;;;7.10;5.90;;;;;;;13.39;81.42;95011.06;5040275;28;20424;-73
2023/10/31 01:55:08;;;;;;;7.97;6.90;;;;;;;13.40;80.44;95002.19;5076502;28;20815;-72
2023/10/31 01:57:34;;;;;;;8.17;6.00;;;;;;;13.30;80.93;94996.13;5076089;28;20451;-73
2023/10/31 02:00:00;;;;;;;8.60;5.70;;;;;;;13.27;80.80;94993.75;5023351;28;20461;-73
2023/10/31 02:02:31;;;;;;;7.00;6.30;;;;;;;13.31;81.48;94993.34;5075377;28;20453;-73
2023/10/31 02:04:58;;;;;;;7.63;5.87;;;;;;;13.31;80.86;94990.72;5075804;28;20439;-73
2023/10/31 02:07:26;;;;;;;9.00;5.67;;;;;;;13.30;80.26;94994.31;5075494;28;20482;-73
2023/10/31 02:09:53;;;;;;;9.73;5.90;;;;;;;13.32;81.12;94983.63;5074757;28;20455;-71
2023/10/31 02:12:33;;;;;;;9.43;6.20;;;;;;;13.16;81.71;94989.47;5075307;28;20448;-73
2023/10/31 02:15:00;;;;;;;10.23;6.17;;;;;;;13.06;81.39;94985.19;5075679;28;20441;-73
2023/10/31 02:17:27;;;;;;;9.07;6.00;;;;;;;13.11;81.80;94985.59;5024527;28;20458;-73
2023/10/31 02:19:54;;;;;;;7.67;5.33;;;;;;;13.09;81.62;94983.13;5075044;28;20443;-74
2023/10/31 02:22:22;;;;;;;8.80;5.47;;;;;;;13.02;81.18;94980.22;5075969;28;20453;-74
2023/10/31 02:24:49;;;;;;;7.87;5.80;;;;;;;12.88;81.22;94985.94;5075590;28;20446;-74
2023/10/31 02:27:16;;;;;;;5.63;4.87;;;;;;;12.89;82.11;94977.06;5074922;28;20490;-73
2023/10/31 02:29:43;;;;;;;9.00;5.30;;;;;;;12.87;81.96;94971.09;5074952;28;20450;-73
2023/10/31 02:32:09;;;;;;;7.10;5.63;;;;;;;12.80;81.92;94971.81;5023423;28;20454;-73
2023/10/31 02:34:36;;;;;;;10.20;5.60;;;;;;;12.80;80.90;94970.00;5075253;28;20450;-73
2023/10/31 02:37:03;;;;;;;13.37;5.90;;;;;;;12.82;81.71;94975.13;5073932;28;20458;-73
2023/10/31 02:39:32;;;;;;;6.47;5.63;;;;;;;12.82;81.40;94973.34;5073594;28;21179;-73
2023/10/31 02:41:58;;;;;;;9.33;5.53;;;;;;;12.85;82.80;94962.50;5074098;28;20920;-73
2023/10/31 02:44:25;;;;;;;6.60;6.00;;;;;;;12.83;82.02;94977.63;5074915;28;20865;-74
2023/10/31 02:46:52;;;;;;;6.57;5.03;;;;;;;12.88;81.88;94979.81;5074937;28;20490;-73
2023/10/31 02:49:19;;;;;;;4.90;4.47;;;;;;;12.81;80.82;94974.31;5074313;28;20453;-74
2023/10/31 02:51:46;;;;;;;6.47;5.43;;;;;;;12.82;81.69;94968.06;5073700;28;20450;-74
2023/10/31 02:54:12;;;;;;;5.80;5.30;;;;;;;12.94;82.32;94971.34;5073770;28;20450;-74
2023/10/31 02:56:41;;;;;;;6.87;6.17;;;;;;;12.96;81.85;94970.22;5073304;28;20542;-73
2023/10/31 02:59:08;;;;;;;7.73;5.13;;;;;;;12.96;82.14;94975.50;5073594;28;20444;-73
2023/10/31 03:01:36;;;;;;;7.27;5.47;;;;;;;12.97;81.35;94982.44;5073606;28;20466;-73
2023/10/31 03:04:03;;;;;;;6.40;5.00;;;;;;;12.83;80.20;94977.63;5074711;28;20447;-74
2023/10/31 03:06:29;;;;;;;7.97;5.03;;;;;;;12.92;81.04;94982.03;5074147;28;21002;-74
2023/10/31 03:08:56;;;;;;;5.40;4.87;;;;;;;12.77;80.41;94969.47;5075117;28;20474;-74
2023/10/31 03:11:24;;;;;;;10.00;5.23;;;;;;;12.61;81.43;94968.22;5073689;28;20455;-74
2023/10/31 03:13:53;;;;;;;9.43;5.70;;;;;;;12.78;81.21;94974.59;5074228;28;20438;-74
2023/10/31 03:16:21;;;;;;;6.90;5.07;;;;;;;12.80;80.75;94963.91;5073586;28;20926;-75
2023/10/31 03:18:48;;;;;;;5.57;5.07;;;;;;;12.86;83.63;94961.53;5073685;28;20452;-75
2023/10/31 03:21:14;;;;;;;8.80;5.67;;;;;;;12.75;81.46;94977.50;5073454;28;20443;-73
2023/10/31 03:23:42;;;;;;;6.90;5.27;;;;;;;12.83;81.62;94971.53;5072696;28;20918;-73
2023/10/31 03:26:09;;;;;;;7.63;5.60;;;;;;;12.78;82.73;94971.13;5072852;28;21058;-74
2023/10/31 03:28:36;;;;;;;6.00;5.30;;;;;;;12.65;83.16;94966.13;5073407;28;20442;-73
2023/10/31 03:31:04;;;;;;;6.33;4.90;;;;;;;12.66;83.62;94971.25;5072885;28;20438;-72
2023/10/31 03:33:31;;;;;;;6.00;5.50;;;;;;;12.40;81.58;94965.75;5073014;28;20438;-71
2023/10/31 03:35:58;;;;;;;8.07;4.93;;;;;;;12.33;82.51;94964.63;5072721;28;20452;-73
2023/10/31 03:38:25;;;;;;;7.73;6.33;;;;;;;12.28;83.61;94964.22;5073269;28;20778;-73
2023/10/31 03:40:52;;;;;;;13.27;8.70;;;;;;;12.33;84.47;94966.44;5074878;28;20442;-73
2023/10/31 03:43:20;;;;;;;18.77;9.17;;;;;;;12.35;87.54;94961.88;5074493;28;20449;-71
2023/10/31 03:45:47;;;;;;;9.43;7.70;;;;;;;12.07;85.06;94945.94;5074232;28;20485;-73
2023/10/31 03:48:17;;;;;;;9.00;6.30;;;;;;;12.19;85.71;94961.59;5073608;28;20505;-73
2023/10/31 03:50:44;;;;;;;7.43;6.00;;;;;;;12.29;85.25;94949.28;5074504;28;20454;-74
2023/10/31 03:53:11;;;;;;;7.80;6.63;;;;;;;12.31;85.76;94931.53;5073997;28;20434;-73
2023/10/31 03:55:37;;;;;;;6.23;5.30;;;;;;;12.35;85.80;94941.66;5073752;28;20445;-73
2023/10/31 03:58:05;;;;;;;7.40;5.80;;;;;;;12.32;83.71;94955.09;5074619;28;20446;-73
2023/10/31 04:00:32;;;;;;;6.07;5.47;;;;;;;12.19;85.38;94946.66;5074002;28;20448;-73
2023/10/31 04:02:59;;;;;;;6.53;4.90;;;;;;;12.10;87.30;94943.03;5074060;28;20871;-73
2023/10/31 04:05:27;;;;;;;7.30;4.90;;;;;;;12.20;86.52;94944.84;5072464;28;20449;-73
2023/10/31 04:07:54;;;;;;;6.07;5.57;;;;;;;12.27;86.79;94931.00;5072246;28;20505;-73
2023/10/31 04:10:21;;;;;;;6.17;5.50;;;;;;;12.22;88.10;94941.13;5072500;28;20467;-74
2023/10/31 04:12:48;;;;;;;6.40;4.53;;;;;;;12.34;86.63;94934.72;5073092;28;20453;-74
2023/10/31 04:15:14;;;;;;;5.37;4.90;;;;;;;12.32;84.55;94947.19;5073009;28;20433;-73
2023/10/31 04:17:41;;;;;;;8.20;5.47;;;;;;;12.27;85.24;94949.41;5072971;28;20445;-73
2023/10/31 04:20:09;;;;;;;7.40;5.50;;;;;;;12.30;87.03;94948.31;5073634;28;20536;-72
2023/10/31 04:22:37;;;;;;;9.40;4.70;;;;;;;12.22;86.05;94948.19;5073112;28;20454;-73
2023/10/31 04:25:04;;;;;;;9.00;6.77;;;;;;;12.32;85.47;94951.63;5073643;28;20932;-74
2023/10/31 04:27:31;;;;;;;5.70;5.17;;;;;;;12.37;86.98;94930.97;5072984;28;20473;-73
2023/10/31 04:29:58;;;;;;;5.70;4.70;;;;;;;12.31;84.04;94929.75;5073056;28;20446;-73
2023/10/31 04:32:25;;;;;;;6.53;5.20;;;;;;;12.39;86.35;94932.50;5073130;28;20504;-73
2023/10/31 04:34:51;;;;;;;7.53;4.80;;;;;;;12.37;84.75;94933.63;5021871;28;20437;-74
2023/10/31 04:37:18;;;;;;;7.20;5.97;;;;;;;12.49;84.63;94929.06;5041661;28;20494;-76
2023/10/31 04:39:46;;;;;;;10.93;6.20;;;;;;;12.34;82.50;94929.47;5077707;28;20936;-74
2023/10/31 04:42:13;;;;;;;5.63;4.80;;;;;;;12.43;82.89;94933.03;5077675;28;20450;-72
2023/10/31 04:44:40;;;;;;;12.00;6.43;;;;;;;12.43;85.01;94921.69;5077895;28;20449;-73
2023/10/31 04:47:07;;;;;;;10.07;5.27;;;;;;;12.56;86.69;94928.34;5042322;28;20509;-72
2023/10/31 04:49:36;;;;;;;7.70;6.90;;;;;;;12.54;84.90;94940.81;5041397;28;20476;-74
2023/10/31 04:52:03;;;;;;;10.83;5.60;;;;;;;12.63;85.00;94942.59;5076438;28;20460;-74
2023/10/31 04:54:29;;;;;;;4.90;4.40;;;;;;;12.61;84.69;94936.63;5041366;28;20511;-74
2023/10/31 04:56:58;;;;;;;5.40;4.70;;;;;;;12.60;83.14;94955.22;5096785;28;20986;-73
2023/10/31 04:59:25;;;;;;;9.50;5.77;;;;;;;12.58;84.06;94957.97;5061196;28;20441;-73
2023/10/31 05:01:52;;;;;;;9.60;6.60;;;;;;;12.54;83.99;94958.41;5097552;28;20555;-74
2023/10/31 05:04:19;;;;;;;8.17;5.60;;;;;;;12.53;83.50;94954.94;5096764;28;20457;-74
2023/10/31 05:06:45;;;;;;;6.63;4.20;;;;;;;12.49;80.53;94952.75;5060507;28;20568;-74
2023/10/31 05:09:12;;;;;;;470.33;346.07;;;;;;;13.42;100.00;94944.88;5096448;28;20465;-76
2023/10/31 05:11:39;;;;;;;106.27;74.37;;;;;;;14.56;92.51;94964.56;5097201;28;20448;-76
2023/10/31 05:14:09;;;;;;;42.43;31.17;;;;;;;15.44;83.59;94963.50;5097139;28;20442;-74
2023/10/31 05:16:40;;;;;;;22.50;13.97;;;;;;;16.60;76.35;94958.38;5096662;28;20923;-74
2023/10/31 05:19:07;;;;;;;5.43;4.43;;;;;;;17.44;66.29;94951.84;5096578;28;20446;-74
2023/10/31 05:21:34;;;;;;;4.23;3.83;;;;;;;17.59;63.67;94950.13;5095969;28;20449;-74
2023/10/31 05:24:01;;;;;;;4.63;4.17;;;;;;;17.83;64.83;94952.72;5096184;28;20436;-73
2023/10/31 05:26:29;;;;;;;5.50;4.90;;;;;;;18.02;63.31;94951.47;5086915;28;20505;-73
2023/10/31 05:28:56;;;;;;;4.77;3.87;;;;;;;18.13;61.56;94952.91;5097013;28;20443;-72
2023/10/31 05:31:24;;;;;;;4.60;4.10;;;;;;;18.44;59.03;94961.66;5095975;28;20830;-74
2023/10/31 05:33:52;;;;;;;6.90;3.97;;;;;;;18.52;58.59;94960.81;5096764;28;20442;-74
2023/10/31 05:36:20;;;;;;;6.50;4.80;;;;;;;18.41;59.60;94956.69;5096035;28;20446;-73
2023/10/31 05:38:46;;;;;;;4.03;3.73;;;;;;;18.72;58.22;94958.50;5077643;28;20471;-73
2023/10/31 05:41:13;;;;;;;4.63;3.53;;;;;;;19.00;57.64;94961.44;5042948;28;20423;-74
2023/10/31 05:43:40;;;;;;;4.50;4.10;;;;;;;19.44;57.84;94969.50;5095949;28;20444;-73
2023/10/31 05:46:10;;;;;;;7.00;4.07;;;;;;;19.80;55.43;94961.63;5095832;28;20798;-73
2023/10/31 05:48:38;;;;;;;4.90;4.40;;;;;;;20.16;54.56;94960.84;5095333;28;20458;-74
2023/10/31 05:51:06;;;;;;;4.33;3.93;;;;;;;20.24;55.10;94972.25;5095672;28;20445;-74
2023/10/31 05:53:34;;;;;;;4.73;3.93;;;;;;;20.31;52.62;94962.47;5094800;28;20458;-74
2023/10/31 05:56:01;;;;;;;4.40;3.97;;;;;;;19.99;52.88;94949.59;5095501;28;20436;-74
2023/10/31 05:58:27;;;;;;;5.97;3.93;;;;;;;19.84;53.49;94962.09;5095876;28;20441;-73
2023/10/31 06:00:54;;;;;;;4.87;3.73;;;;;;;20.00;53.79;94960.06;5058872;28;20435;-74
2023/10/31 06:03:21;;;;;;;10.60;4.77;;;;;;;20.19;56.05;94971.13;5075815;28;20449;-75
2023/10/31 06:05:49;;;;;;;13.60;5.17;;;;;;;20.29;53.17;94967.16;5075289;28;20437;-73
2023/10/31 06:08:16;;;;;;;9.70;5.27;;;;;;;20.41;55.20;94976.34;5075766;28;20505;-73
2023/10/31 06:10:43;;;;;;;13.13;5.17;;;;;;;20.26;51.97;94977.38;5040380;28;20537;-73
2023/10/31 06:13:09;;;;;;;10.47;5.90;;;;;;;20.00;58.92;94980.53;5075522;28;20441;-75
2023/10/31 06:15:36;;;;;;;11.63;5.73;;;;;;;19.87;56.43;94985.69;5074725;28;20456;-73
2023/10/31 06:18:03;;;;;;;10.03;3.73;;;;;;;19.73;53.72;94980.19;5074370;28;20453;-73
2023/10/31 06:20:31;;;;;;;8.80;5.50;;;;;;;19.32;55.50;94990.41;5074701;28;20477;-73
2023/10/31 06:22:59;;;;;;;9.93;5.73;;;;;;;19.27;56.56;94990.13;5076270;28;20519;-73
2023/10/31 06:25:26;;;;;;;8.00;6.30;;;;;;;19.16;56.53;94999.38;5083236;28;20966;-73
2023/10/31 06:27:53;;;;;;;5.70;4.60;;;;;;;19.21;58.57;95000.66;5052233;28;21039;-73
2023/10/31 06:30:20;;;;;;;9.83;7.40;;;;;;;19.00;57.51;94978.22;5093651;28;20443;-73
2023/10/31 06:32:46;;;;;;;10.37;7.30;;;;;;;18.27;61.03;94982.22;5086728;28;20470;-74
2023/10/31 06:35:13;;;;;;;17.60;9.40;;;;;;;17.27;65.07;94989.00;5094094;28;20445;-73
2023/10/31 06:37:40;;;;;;;12.53;8.60;;;;;;;16.63;67.70;94993.31;5093771;28;20455;-73
2023/10/31 06:40:10;;;;;;;12.27;9.30;;;;;;;16.81;70.66;95008.28;5094179;28;20946;-72
2023/10/31 06:42:37;;;;;;;17.43;10.67;;;;;;;17.12;68.65;94996.00;5094470;28;20578;-72
2023/10/31 06:45:04;;;;;;;19.43;10.73;;;;;;;17.15;67.09;95010.75;5093608;28;20910;-73
2023/10/31 06:47:33;;;;;;;19.63;11.20;;;;;;;16.73;68.14;94996.66;5058815;28;20479;-72
2023/10/31 06:50:00;;;;;;;16.67;9.67;;;;;;;16.89;70.01;95005.63;5094671;28;20926;-72
2023/10/31 06:52:27;;;;;;;10.57;9.10;;;;;;;17.01;69.07;94993.66;5094775;28;20815;-73
2023/10/31 06:54:59;;;;;;;22.80;10.50;;;;;;;17.01;67.70;94988.38;5094498;28;20525;-73
2023/10/31 06:57:30;;;;;;;13.10;8.90;;;;;;;16.69;68.58;94995.34;5044676;28;20476;-73
2023/10/31 06:59:56;;;;;;;14.93;10.33;;;;;;;16.84;70.41;94986.75;5092446;28;20444;-73
2023/10/31 07:02:23;;;;;;;18.47;10.00;;;;;;;16.74;72.08;94978.94;5042783;28;20481;-73
2023/10/31 07:04:53;;;;;;;9.07;7.50;;;;;;;16.78;69.26;94980.28;5083909;28;20820;-73
2023/10/31 07:07:20;;;;;;;9.03;5.50;;;;;;;16.68;67.53;94979.59;5093117;28;20499;-74
2023/10/31 07:09:46;;;;;;;5.77;4.57;;;;;;;16.71;68.65;94980.09;5065161;28;20487;-74
2023/10/31 07:12:13;;;;;;;9.33;4.70;;;;;;;16.82;69.88;94972.81;5081733;28;20444;-74
2023/10/31 07:14:41;;;;;;;7.70;4.60;;;;;;;16.90;66.99;94975.47;5094738;28;20461;-74
2023/10/31 07:17:08;;;;;;;3.83;3.53;;;;;;;16.87;65.41;94976.63;5084919;28;20457;-74
2023/10/31 07:19:35;;;;;;;6.23;3.90;;;;;;;16.88;67.15;94977.47;5093459;28;20438;-74
2023/10/31 07:22:03;;;;;;;4.90;4.40;;;;;;;16.73;64.99;94975.44;5093972;28;20454;-73
2023/10/31 07:24:29;;;;;;;6.90;4.57;;;;;;;16.97;67.71;94969.31;5041557;28;20467;-73
2023/10/31 07:26:56;;;;;;;8.53;5.33;;;;;;;17.02;69.80;94971.47;5092940;28;20486;-73
2023/10/31 07:29:23;;;;;;;10.63;4.30;;;;;;;17.12;68.34;94966.00;5092572;28;20435;-73
2023/10/31 07:31:51;;;;;;;7.17;5.83;;;;;;;17.18;67.61;94974.09;5093056;28;20432;-74
2023/10/31 07:34:18;;;;;;;8.60;5.63;;;;;;;17.11;66.55;94965.19;5092861;28;20941;-73
2023/10/31 07:36:47;;;;;;;10.70;6.63;;;;;;;17.05;68.48;94968.47;5093082;28;20444;-74
2023/10/31 07:39:14;;;;;;;7.90;6.93;;;;;;;16.89;68.26;94966.69;5093445;28;20443;-73
2023/10/31 07:41:41;;;;;;;12.47;7.70;;;;;;;16.56;69.73;94960.53;5093788;28;20441;-73
2023/10/31 07:44:08;;;;;;;7.03;6.20;;;;;;;16.42;71.35;94961.16;5093655;28;20449;-73
2023/10/31 07:46:34;;;;;;;12.33;8.00;;;;;;;16.62;74.28;94951.91;5093637;28;20477;-73
2023/10/31 07:49:03;;;;;;;13.63;7.00;;;;;;;16.69;75.02;94930.91;5092658;28;20490;-73
2023/10/31 07:51:29;;;;;;;12.63;7.30;;;;;;;16.87;72.75;94944.00;5093100;28;20451;-73
2023/10/31 07:53:58;;;;;;;9.20;7.50;;;;;;;16.80;72.45;94943.00;5092869;28;20923;-73
2023/10/31 07:56:25;;;;;;;16.47;6.57;;;;;;;16.86;74.38;94939.69;5092730;28;20448;-73
2023/10/31 07:58:52;;;;;;;9.73;6.77;;;;;;;16.91;74.12;94935.53;5093535;28;20476;-73
2023/10/31 08:01:19;;;;;;;11.93;7.00;;;;;;;17.04;72.68;94935.00;5093818;28;20444;-73
2023/10/31 08:03:47;;;;;;;11.67;8.03;;;;;;;16.88;72.89;94929.75;5041108;28;20443;-73
2023/10/31 08:06:15;;;;;;;9.73;7.77;;;;;;;16.71;73.53;94924.44;5093566;28;20471;-73
2023/10/31 08:08:44;;;;;;;11.43;9.33;;;;;;;16.89;75.24;94916.31;5093656;28;20501;-73
2023/10/31 08:11:12;;;;;;;20.20;10.20;;;;;;;16.90;73.49;94919.81;5092001;28;20440;-72
2023/10/31 08:13:39;;;;;;;21.53;10.03;;;;;;;16.95;74.56;94914.81;5092384;28;20992;-74
2023/10/31 08:16:11;;;;;;;8.97;7.53;;;;;;;16.94;73.65;94907.88;5092407;28;20452;-73
2023/10/31 08:18:40;;;;;;;11.97;9.13;;;;;;;16.81;73.00;94911.03;5092590;28;20556;-73
2023/10/31 08:21:07;;;;;;;17.17;10.00;;;;;;;17.04;74.57;94911.16;5092725;28;20441;-72
2023/10/31 08:23:38;;;;;;;13.20;9.03;;;;;;;17.37;74.52;94916.38;5092728;28;20444;-73
2023/10/31 08:26:07;;;;;;;15.50;9.27;;;;;;;17.63;74.03;94906.31;5040131;28;20808;-73
2023/10/31 08:28:34;;;;;;;11.97;8.00;;;;;;;17.93;74.59;94902.91;5092618;28;20494;-73
2023/10/31 08:31:03;;;;;;;12.60;8.93;;;;;;;18.18;71.59;94911.53;5056438;28;20857;-73
2023/10/31 08:33:31;;;;;;;19.53;8.93;;;;;;;18.43;68.31;94900.72;5057570;28;20448;-72
2023/10/31 08:36:01;;;;;;;10.90;8.00;;;;;;;18.55;69.45;94896.66;5092401;28;20858;-72
2023/10/31 08:38:29;;;;;;;17.03;8.77;;;;;;;18.53;66.76;94885.38;5092156;28;20497;-73
2023/10/31 08:40:57;;;;;;;10.93;8.17;;;;;;;18.68;66.96;94875.63;5092798;28;20926;-74
2023/10/31 08:43:26;;;;;;;10.93;7.97;;;;;;;18.56;65.65;94880.53;5093066;28;20462;-73
2023/10/31 08:46:02;;;;;;;14.83;7.20;;;;;;;18.73;67.72;94873.25;5093091;28;20464;-73
2023/10/31 08:48:28;;;;;;;18.30;9.10;;;;;;;18.92;65.25;94877.25;5044257;28;20490;-73
2023/10/31 08:50:55;;;;;;;10.33;7.90;;;;;;;19.02;66.96;94867.16;5040379;28;20430;-73
2023/10/31 08:53:22;;;;;;;14.90;7.77;;;;;;;19.22;65.62;94870.13;5091997;28;20948;-73
2023/10/31 08:55:49;;;;;;;10.37;7.30;;;;;;;19.32;66.02;94859.19;5092748;28;20922;-73
2023/10/31 08:58:18;;;;;;;9.83;6.77;;;;;;;19.47;64.17;94844.88;5093524;28;20438;-73
2023/10/31 09:00:44;;;;;;;10.97;7.60;;;;;;;19.62;65.11;94834.22;5092977;28;20485;-73
2023/10/31 09:03:11;;;;;;;13.40;7.90;;;;;;;19.77;63.02;94832.34;5092387;28;20443;-73
2023/10/31 09:05:38;;;;;;;14.93;7.10;;;;;;;19.83;61.77;94829.94;5092075;28;20440;-73
2023/10/31 09:08:05;;;;;;;14.47;7.47;;;;;;;19.77;61.16;94823.53;5091977;28;20863;-73
2023/10/31 09:10:33;;;;;;;11.23;5.97;;;;;;;19.75;59.30;94825.56;5056663;28;20533;-73
2023/10/31 09:13:00;;;;;;;11.33;5.63;;;;;;;19.78;59.08;94823.34;5039882;28;20514;-72
2023/10/31 09:15:30;;;;;;;8.43;5.97;;;;;;;19.66;58.55;94813.34;5091818;28;20527;-73
2023/10/31 09:17:57;;;;;;;8.37;6.00;;;;;;;19.78;60.21;94802.06;5092108;28;20433;-73
2023/10/31 09:20:24;;;;;;;12.77;7.00;;;;;;;19.99;59.12;94803.09;5092450;28;20441;-73
2023/10/31 09:22:51;;;;;;;11.07;8.37;;;;;;;20.09;57.57;94793.75;5094243;28;20476;-73
2023/10/31 09:25:18;;;;;;;9.50;6.10;;;;;;;20.11;57.34;94796.22;5060124;28;20440;-72
2023/10/31 09:27:44;;;;;;;10.00;5.67;;;;;;;20.14;56.39;94801.16;5043115;28;20492;-73
2023/10/31 09:30:12;;;;;;;9.17;7.37;;;;;;;20.23;57.57;94789.34;5076201;28;20443;-74
2023/10/31 09:32:40;;;;;;;13.97;8.57;;;;;;;20.28;56.08;94783.47;5095698;28;20436;-73
2023/10/31 09:35:08;;;;;;;17.40;11.00;;;;;;;20.30;55.66;94778.78;5095212;28;20445;-73
2023/10/31 09:37:35;;;;;;;16.00;11.53;;;;;;;20.23;56.49;94769.88;5095723;28;20480;-73
2023/10/31 09:40:02;;;;;;;24.27;17.97;;;;;;;20.15;54.84;94757.53;5042668;28;20451;-72
2023/10/31 09:42:29;;;;;;;9.53;6.70;;;;;;;19.91;54.84;94764.06;5095226;28;20569;-73
2023/10/31 09:44:56;;;;;;;9.57;6.83;;;;;;;19.74;55.23;94763.50;5095828;28;20527;-73
2023/10/31 09:47:23;;;;;;;15.63;7.63;;;;;;;19.72;55.53;94754.88;5095180;28;20449;-74
2023/10/31 09:49:51;;;;;;;10.90;6.83;;;;;;;19.92;55.41;94754.22;5095773;28;20439;-73
2023/10/31 09:52:20;;;;;;;9.60;5.00;;;;;;;19.93;53.24;94750.56;5095101;28;20901;-73
2023/10/31 09:54:49;;;;;;;4.50;3.80;;;;;;;19.90;53.65;94740.28;5095300;28;20467;-71
2023/10/31 09:57:18;;;;;;;5.10;4.60;;;;;;;19.96;53.55;94724.38;5095492;28;20443;-73
2023/10/31 09:59:44;;;;;;;11.00;4.77;;;;;;;19.85;52.09;94724.88;5095713;28;20471;-73
2023/10/31 10:02:11;;;;;;;9.20;5.00;;;;;;;19.96;53.63;94715.56;5095786;28;20439;-73
2023/10/31 10:04:39;;;;;;;9.10;5.17;;;;;;;20.08;52.46;94714.84;5094960;28;20457;-73
2023/10/31 10:07:07;;;;;;;5.70;5.17;;;;;;;20.22;53.25;94714.94;5094380;28;20475;-74
2023/10/31 10:09:34;;;;;;;11.97;7.60;;;;;;;20.38;54.14;94704.00;5075565;28;20486;-73
2023/10/31 10:12:01;;;;;;;9.70;5.50;;;;;;;20.51;52.43;94705.94;5094400;28;20444;-74
2023/10/31 10:14:31;;;;;;;10.67;5.83;;;;;;;20.57;52.10;94700.69;5094381;28;20802;-73
2023/10/31 10:16:58;;;;;;;11.77;4.43;;;;;;;20.69;51.48;94693.75;5094602;28;20445;-73
2023/10/31 10:19:25;;;;;;;4.20;3.80;;;;;;;20.72;49.58;94689.88;5094802;28;20534;-73
2023/10/31 10:21:54;;;;;;;6.50;4.37;;;;;;;20.56;48.89;94679.56;5095439;28;20868;-73
2023/10/31 10:24:24;;;;;;;7.57;4.90;;;;;;;20.51;49.15;94679.28;5094764;28;20448;-73
2023/10/31 10:26:51;;;;;;;9.10;4.57;;;;;;;20.53;48.43;94678.09;5094904;28;20440;-74
2023/10/31 10:29:18;;;;;;;5.30;3.37;;;;;;;20.67;52.08;94673.66;5094782;28;20485;-74
2023/10/31 10:31:45;;;;;;;16.83;4.47;;;;;;;20.77;50.76;94675.94;5094021;28;20950;-74
2023/10/31 10:34:15;;;;;;;10.40;4.30;;;;;;;20.81;49.17;94666.53;5093979;28;20454;-74
2023/10/31 10:36:47;;;;;;;5.00;3.60;;;;;;;20.84;48.67;94661.66;5095111;28;20467;-73
2023/10/31 10:39:17;;;;;;;3.33;3.03;;;;;;;20.84;47.16;94658.16;5095182;28;20453;-73
2023/10/31 10:41:49;;;;;;;6.87;4.07;;;;;;;20.84;46.00;94653.66;5094879;28;20440;-73
2023/10/31 10:44:17;;;;;;;9.27;3.73;;;;;;;20.84;47.06;94648.31;5094215;28;20485;-73
2023/10/31 10:46:51;;;;;;;8.90;5.10;;;;;;;20.83;48.52;94651.19;5094076;28;20490;-72
2023/10/31 10:49:22;;;;;;;8.70;5.47;;;;;;;20.87;48.37;94633.75;5042057;28;20509;-73
2023/10/31 10:51:54;;;;;;;16.07;6.50;;;;;;;20.93;49.91;94630.28;5093604;28;20444;-73
2023/10/31 10:54:28;;;;;;;9.03;5.23;;;;;;;20.89;48.09;94640.53;5094211;28;20497;-73
2023/10/31 10:57:05;;;;;;;9.23;6.90;;;;;;;20.94;49.15;94627.41;5094489;28;20454;-74
2023/10/31 10:59:41;;;;;;;15.70;8.30;;;;;;;20.97;49.21;94618.19;5093907;28;20450;-73
2023/10/31 11:30:23;;;;;;;11.57;7.87;;;;;;;22.19;49.98;94562.63;5112663;27;20536;-75
2023/10/31 11:32:52;;;;;;;14.63;7.60;;;;;;;22.15;49.29;94561.41;5111064;28;20449;-76
2023/10/31 11:35:19;;;;;;;10.03;6.87;;;;;;;22.11;47.47;94557.50;5091837;28;20456;-75
2023/10/31 11:37:49;;;;;;;9.33;6.60;;;;;;;22.11;48.44;94562.03;5110938;28;20434;-75
2023/10/31 11:40:21;;;;;;;12.93;7.67;;;;;;;22.11;47.79;94557.50;5110944;28;20508;-75
2023/10/31 11:42:50;;;;;;;12.43;5.43;;;;;;;22.05;46.89;94555.69;5111312;28;20445;-75
2023/10/31 11:45:29;;;;;;;13.63;5.93;;;;;;;22.07;46.39;94537.59;5110659;28;20460;-75
2023/10/31 11:47:56;;;;;;;12.37;5.50;;;;;;;21.97;46.32;94537.16;5110466;28;20466;-75
2023/10/31 11:50:24;;;;;;;7.00;4.80;;;;;;;21.95;46.33;94533.84;5110419;28;20446;-75
2023/10/31 11:53:06;;;;;;;12.13;5.60;;;;;;;21.87;46.03;94521.56;5110511;28;20452;-76
2023/10/31 11:55:36;;;;;;;7.03;4.73;;;;;;;21.87;46.53;94520.72;5091714;28;20881;-75
2023/10/31 11:58:20;;;;;;;10.00;4.70;;;;;;;21.81;45.43;94519.72;5110750;28;20847;-75
2023/10/31 12:00:50;;;;;;;15.83;4.97;;;;;;;21.75;45.67;94527.75;5111001;28;20464;-75